Terminal Aerodrome Forecast
Issued by NWS

Home | Current Version | Previous Version | Text Only | Print | Product List | Glossary On
Versions: 1 2 3 4 5 6 7 8 9 10 11 12 13 14 15 16 17 18
000
FTUS43 KDTX 032043 AAA
TAFDET
TAF AMD
KDET 032043Z 0321/0418 05005KT P6SM BKN060
      TEMPO 0321/0324 1SM TSRA BKN035CB OVC100
     FM040100 VRB03KT 3SM SHRA BKN050 BKN100
     FM040500 VRB03KT 4SM BR BKN040
     FM040700 00000KT 1SM BR BKN040
     FM041300 23003KT 6SM BR SCT250
     FM041600 23005KT P6SM BKN035=

USA.gov is the U.S. government's official web portal to all federal, state and local government web resources and services.